Home > Products > Valid Products > TAF

000
FTUS44 KEPZ 031132
TAFTCS
TAF
KTCS 031132Z 0312/0412 29006KT P6SM FEW080 BKN120
     FM032100 21010KT P6SM VCTS FEW070CB BKN130
     FM040600 27008KT P6SM FEW070 BKN120=



000
FTUS44 KEPZ 031132
TAFELP
TAF
KELP 031132Z 0312/0412 32007KT P6SM FEW080 BKN120 OVC250
     FM032100 28011G22KT P6SM SCT080 SCT110 BKN150
     FM040100 29009KT P6SM VCTS SCT080CB BKN150 OVC250
     FM040600 27008KT P6SM FEW080 BKN120=



000
FTUS44 KEPZ 031132
TAFDMN
TAF
KDMN 031132Z 0312/0412 30006KT P6SM VCSH SCT070 BKN120
     FM032100 25011G18KT P6SM VCTS FEW070CB BKN120
     FM040400 28010KT P6SM VCSH SCT070 BKN110 OVC150
     FM040600 23008KT P6SM FEW070 BKN120=



000
FTUS44 KEPZ 030524
TAFELP
TAF
KELP 030524Z 0306/0406 25010G17KT P6SM VCSH FEW080 SCT120 BKN240
     FM030800 31011KT P6SM FEW080 BKN150 OVC250
     FM032100 28011G22KT P6SM SCT080 SCT110 BKN150
     FM040300 29009KT P6SM SCT080 BKN150 OVC250=



000
FTUS44 KEPZ 030524
TAFDMN
TAF
KDMN 030524Z 0306/0406 27010KT P6SM VCSH FEW070 SCT110 BKN150
     FM031200 25006KT P6SM SCT070 BKN150
     FM032100 25011G18KT P6SM VCTS FEW070CB BKN120
     FM040400 28010KT P6SM VCSH SCT070 BKN110 OVC150=



000
FTUS44 KEPZ 030524
TAFTCS
TAF
KTCS 030524Z 0306/0406 28015G25KT P6SM VCSH FEW050 SCT080 BKN150
     FM031200 24006KT P6SM FEW080 BKN140
     FM032100 21010KT P6SM VCTS FEW070CB BKN130
     FM040400 27008KT P6SM SCT070 BKN120=



000
FTUS44 KEPZ 030113 AAA
TAFTCS
TAF AMD
KTCS 030113Z 0301/0324 32006KT P6SM VCTS FEW080CB BKN120
      TEMPO 0301/0303 VRB20G35KT 2SM TSRA FEW045 BKN070CB BKN110
     FM030400 31008KT P6SM SCT080 BKN120
     FM031200 29006KT P6SM FEW080 BKN140
     FM032100 17005KT P6SM FEW070 BKN130=



000
FTUS44 KEPZ 030113 AAA
TAFTCS
TAF AMD
KTCS 030113Z 0301/0324 32006KT P6SM VCTS FEW080CB BKN120
      TEMPO 0301/0303 VRB20G35KT 2SM TSRA FEW045 BKN070CB BKN110
     FM030400 31008KT P6SM SCT080 BKN120
     FM031200 29006KT P6SM FEW080 BKN140
     FM032100 17005KT P6SM FEW070 BKN130=



000
FTUS44 KEPZ 022336
TAFDMN
TAF
KDMN 022336Z 0300/0324 25011G19KT P6SM VCTS FEW080CB BKN130 OVC180
      TEMPO 0300/0303 VRB15G30KT 5SM TSRA SCT070CB BKN110
     FM030400 29008KT P6SM VCSH SCT080 BKN150
     FM031200 27006KT P6SM SCT070 BKN150
     FM032100 25010KT P6SM FEW070 BKN120=



000
FTUS44 KEPZ 022336
TAFELP
TAF
KELP 022336Z 0300/0324 15005KT P6SM VCTS FEW090CB SCT120 BKN260
     FM030300 06008KT P6SM VCSH SCT090 BKN120 OVC250
     FM031400 31011KT P6SM SCT110 BKN150
     FM032100 27009KT P6SM SCT080 BKN150=



000
FTUS44 KEPZ 022336
TAFTCS
TAF
KTCS 022336Z 0300/0324 32006KT P6SM VCTS FEW080CB BKN120
      TEMPO 0300/0303 VRB20G35KT 5SM TSRA SCT070CB BKN110
     FM030500 31008KT P6SM SCT080 BKN120
     FM031200 29006KT P6SM FEW080 BKN140
     FM032100 17005KT P6SM FEW070 BKN130=



000
FTUS44 KEPZ 022336
TAFDMN
TAF
KDMN 022336Z 0300/0324 25011G19KT P6SM VCTS FEW080CB BKN130 OVC180
      TEMPO 0300/0303 VRB15G30KT 5SM TSRA SCT070CB BKN110
     FM030400 29008KT P6SM VCSH SCT080 BKN150
     FM031200 27006KT P6SM SCT070 BKN150
     FM032100 25010KT P6SM FEW070 BKN120=



000
FTUS44 KEPZ 022336
TAFELP
TAF
KELP 022336Z 0300/0324 15005KT P6SM VCTS FEW090CB SCT120 BKN260
     FM030300 06008KT P6SM VCSH SCT090 BKN120 OVC250
     FM031400 31011KT P6SM SCT110 BKN150
     FM032100 27009KT P6SM SCT080 BKN150=



000
FTUS44 KEPZ 022336
TAFTCS
TAF
KTCS 022336Z 0300/0324 32006KT P6SM VCTS FEW080CB BKN120
      TEMPO 0300/0303 VRB20G35KT 5SM TSRA SCT070CB BKN110
     FM030500 31008KT P6SM SCT080 BKN120
     FM031200 29006KT P6SM FEW080 BKN140
     FM032100 17005KT P6SM FEW070 BKN130=



000
FTUS44 KEPZ 021734
TAFDMN
TAF
KDMN 021734Z 0218/0318 27011KT P6SM SCT100 BKN250
     FM030200 29008KT P6SM VCTS SCT080CB BKN150
      TEMPO 0302/0306 2SM TSRA BKN040CB
     FM030800 27006KT P6SM BKN070 BKN150=



000
FTUS44 KEPZ 021734
TAFELP
TAF
KELP 021734Z 0218/0318 02007KT P6SM FEW100 SCT200
     FM030300 06008KT P6SM SCT090 BKN250
     FM031400 30006KT P6SM SCT080 BKN150=



000
FTUS44 KEPZ 021734
TAFTCS
TAF
KTCS 021734Z 0218/0318 14008KT P6SM SCT100 SCT250
     FM022100 24009KT P6SM VCTS SCT080CB BKN250
     FM030500 31008KT P6SM SCT080 BKN120=



000
FTUS44 KEPZ 021128
TAFTCS
TAF
KTCS 021128Z 0212/0312 30006KT P6SM FEW120 BKN250
     FM021800 17007KT P6SM SCT100 SCT250
     FM022100 25009KT P6SM VCTS SCT080CB BKN250
     FM030600 31008KT P6SM SCT080 BKN250=



000
FTUS44 KEPZ 021128
TAFDMN
TAF
KDMN 021128Z 0212/0312 28007KT P6SM FEW100 BKN250
     FM022000 27010G20KT P6SM VCTS SCT090CB BKN250
     FM030300 25007KT P6SM VCTS SCT090CB BKN250
     FM030600 31005KT P6SM SCT090 BKN250=



000
FTUS44 KEPZ 021128
TAFDMN
TAF
KDMN 021128Z 0212/0312 28007KT P6SM FEW100 BKN250
     FM022000 27010G20KT P6SM VCTS SCT090CB BKN250
     FM030300 25007KT P6SM VCTS SCT090CB BKN250
     FM030600 31005KT P6SM SCT090 BKN250=



000
FTUS44 KEPZ 021128
TAFELP
TAF
KELP 021128Z 0212/0312 12007KT P6SM FEW100 BKN250
     FM022000 24008G16KT P6SM SCT090 BKN250
     FM030300 32010KT P6SM SCT090 BKN250=



000
FTUS44 KEPZ 021128
TAFTCS
TAF
KTCS 021128Z 0212/0312 30006KT P6SM FEW120 BKN250
     FM021800 17007KT P6SM SCT100 SCT250
     FM022100 25009KT P6SM VCTS SCT080CB BKN250
     FM030600 31008KT P6SM SCT080 BKN250=



000
FTUS44 KEPZ 021128
TAFELP
TAF
KELP 021128Z 0212/0312 12007KT P6SM FEW100 BKN250
     FM022000 24008G16KT P6SM SCT090 BKN250
     FM030300 32010KT P6SM SCT090 BKN250=



000
FTUS44 KEPZ 020527
TAFTCS
TAF
KTCS 020527Z 0206/0306 33006KT P6SM SCT120 SCT250
     FM021800 17007KT P6SM SCT100 SCT250
     FM022100 25009KT P6SM VCTS SCT080CB BKN250
     FM030300 31008KT P6SM VCTS SCT080CB BKN250=



000
FTUS44 KEPZ 020527
TAFELP
TAF
KELP 020527Z 0206/0306 24008KT P6SM SCT130 BKN250
     FM020900 14007KT P6SM SCT100 BKN250
     FM022000 24008G16KT P6SM SCT090 BKN250=



000
FTUS44 KEPZ 020527
TAFDMN
TAF
KDMN 020527Z 0206/0306 29008KT P6SM SCT130 BKN250
     FM020900 14007KT P6SM SCT100 BKN250
     FM022000 27010G20KT P6SM VCTS SCT090CB BKN250=



000
FTUS44 KEPZ 020527
TAFDMN
TAF
KDMN 020527Z 0206/0306 29008KT P6SM SCT130 BKN250
     FM020900 14007KT P6SM SCT100 BKN250
     FM022000 27010G20KT P6SM VCTS SCT090CB BKN250=



000
FTUS44 KEPZ 020527
TAFELP
TAF
KELP 020527Z 0206/0306 24008KT P6SM SCT130 BKN250
     FM020900 14007KT P6SM SCT100 BKN250
     FM022000 24008G16KT P6SM SCT090 BKN250=



000
FTUS44 KEPZ 020527
TAFTCS
TAF
KTCS 020527Z 0206/0306 33006KT P6SM SCT120 SCT250
     FM021800 17007KT P6SM SCT100 SCT250
     FM022100 25009KT P6SM VCTS SCT080CB BKN250
     FM030300 31008KT P6SM VCTS SCT080CB BKN250=



000
FTUS44 KEPZ 020052 AAA
TAFTCS
TAF AMD
KTCS 020052Z 0201/0224 29011KT P6SM VCTS SCT080CB SCT250
     FM020500 32007KT P6SM SCT100 SCT250
     FM022000 26007KT P6SM VCTS SCT090CB BKN250=



000
FTUS44 KEPZ 012325
TAFDMN
TAF
KDMN 012325Z 0200/0224 29008KT P6SM VCTS SCT100CB SCT250
     FM020500 25007KT P6SM SCT100 SCT250
     FM022000 24007KT P6SM VCTS SCT090CB BKN250=



000
FTUS44 KEPZ 012325
TAFTCS
TAF
KTCS 012325Z 0200/0224 33009G19KT P6SM VCTS SCT080CB SCT250
     FM020500 32007KT P6SM SCT100 SCT250
     FM022000 26007KT P6SM VCTS SCT090CB BKN250=



000
FTUS44 KEPZ 012325
TAFELP
TAF
KELP 012325Z 0200/0224 23008KT P6SM SCT100 SCT250
     FM020500 14007KT P6SM SCT100 SCT250
     FM022000 24007KT P6SM SCT090 BKN250=



000
FTUS44 KEPZ 011724
TAFDMN
TAF
KDMN 011724Z 0118/0218 28010KT P6SM SCT090 BKN250
     FM012200 25009KT P6SM VCTS SCT090CB BKN250
     FM020300 29007KT P6SM SCT100 BKN200=



000
FTUS44 KEPZ 011724
TAFTCS
TAF
KTCS 011724Z 0118/0218 14008KT P6SM SCT100 BKN250
     FM012100 22010KT P6SM VCTS SCT090CB BKN250
     FM020400 29007KT P6SM SCT100 BKN200=



000
FTUS44 KEPZ 011724
TAFELP
TAF
KELP 011724Z 0118/0218 24008KT P6SM FEW100 SCT250
     FM020500 01007KT P6SM FEW120 SCT250
     FM021200 15006KT P6SM SCT200=



000
FTUS44 KEPZ 011724
TAFDMN
TAF
KDMN 011724Z 0118/0218 28010KT P6SM SCT090 BKN250
     FM012200 25009KT P6SM VCTS SCT090CB BKN250
     FM020300 29007KT P6SM SCT100 BKN200=



000
FTUS44 KEPZ 011724
TAFTCS
TAF
KTCS 011724Z 0118/0218 14008KT P6SM SCT100 BKN250
     FM012100 22010KT P6SM VCTS SCT090CB BKN250
     FM020400 29007KT P6SM SCT100 BKN200=



000
FTUS44 KEPZ 011724
TAFELP
TAF
KELP 011724Z 0118/0218 24008KT P6SM FEW100 SCT250
     FM020500 01007KT P6SM FEW120 SCT250
     FM021200 15006KT P6SM SCT200=



000
FTUS44 KEPZ 011142
TAFDMN
TAF
KDMN 011142Z 0112/0212 29006KT P6SM BKN250
     FM012200 24009KT P6SM VCTS SCT090CB BKN250
     FM020300 28007KT P6SM SCT250=



000
FTUS44 KEPZ 011142
TAFTCS
TAF
KTCS 011142Z 0112/0212 31008KT P6SM FEW080 BKN250
     FM012100 21010KT P6SM VCTS SCT080CB BKN250
     FM020300 29007KT P6SM SCT250=



000
FTUS44 KEPZ 011142
TAFELP
TAF
KELP 011142Z 0112/0212 VRB05KT P6SM BKN250
     FM012000 24008KT P6SM FEW090 SCT250=



000
FTUS44 KEPZ 011142
TAFELP
TAF
KELP 011142Z 0112/0212 VRB05KT P6SM BKN250
     FM012000 24008KT P6SM FEW090 SCT250=



000
FTUS44 KEPZ 011142
TAFDMN
TAF
KDMN 011142Z 0112/0212 29006KT P6SM BKN250
     FM012200 24009KT P6SM VCTS SCT090CB BKN250
     FM020300 28007KT P6SM SCT250=



000
FTUS44 KEPZ 011142
TAFTCS
TAF
KTCS 011142Z 0112/0212 31008KT P6SM FEW080 BKN250
     FM012100 21010KT P6SM VCTS SCT080CB BKN250
     FM020300 29007KT P6SM SCT250=



000
FTUS44 KEPZ 010528
TAFDMN
TAF
KDMN 010528Z 0106/0206 31005KT P6SM FEW090 SCT250
     FM011500 26008KT P6SM SCT250
     FM020000 29007KT P6SM VCTS SCT090CB BKN250=



000
FTUS44 KEPZ 010528
TAFTCS
TAF
KTCS 010528Z 0106/0206 30006KT P6SM FEW080 SCT250
     FM011300 VRB04KT P6SM SCT250
     FM011700 16007KT P6SM FEW080 SCT250
     FM012200 25008KT P6SM VCTS SCT080CB BKN250=



000
FTUS44 KEPZ 010528
TAFELP
TAF
KELP 010528Z 0106/0206 31008KT P6SM SCT250
     FM010900 18006KT P6SM SCT250
     FM011600 25006KT P6SM SCT250=



000
FTUS44 KEPZ 312337
TAFDMN
TAF
KDMN 312337Z 0100/0124 22010KT P6SM VCTS SCT080CB SCT250
     FM010300 29005KT P6SM FEW090 SCT250
     FM011500 26008KT P6SM SCT250=



000
FTUS44 KEPZ 312337
TAFTCS
TAF
KTCS 312337Z 0100/0124 25008KT P6SM SCT080 SCT250
     FM010600 30006KT P6SM FEW080 SCT250
     FM011300 VRB04KT P6SM SCT250
     FM011700 16007KT P6SM FEW080 SCT250=



000
FTUS44 KEPZ 312337
TAFELP
TAF
KELP 312337Z 0100/0124 18006KT P6SM FEW120 SCT250
     FM010400 14005KT P6SM FEW250
     FM011600 25006KT P6SM SCT250=



000
FTUS44 KEPZ 311720
TAFTCS
TAF
KTCS 311720Z 3118/0118 16005KT P6SM FEW070
     FM312100 25008KT P6SM VCTS SCT080CB SCT250
     FM010300 30006KT P6SM FEW080 SCT250
     FM011300 VRB04KT P6SM SCT250=



000
FTUS44 KEPZ 311720
TAFDMN
TAF
KDMN 311720Z 3118/0118 26011KT P6SM FEW080 SCT250
     FM010300 29005KT P6SM FEW090 SCT250
     FM011500 26008KT P6SM SCT250=



000
FTUS44 KEPZ 311720
TAFELP
TAF
KELP 311720Z 3118/0118 25006KT P6SM FEW120 SCT250
     FM010400 14005KT P6SM FEW250
     FM011600 25006KT P6SM SCT250=



000
FTUS44 KEPZ 311720
TAFELP
TAF
KELP 311720Z 3118/0118 25006KT P6SM FEW120 SCT250
     FM010400 14005KT P6SM FEW250
     FM011600 25006KT P6SM SCT250=



000
FTUS44 KEPZ 311720
TAFDMN
TAF
KDMN 311720Z 3118/0118 26011KT P6SM FEW080 SCT250
     FM010300 29005KT P6SM FEW090 SCT250
     FM011500 26008KT P6SM SCT250=



000
FTUS44 KEPZ 311720
TAFTCS
TAF
KTCS 311720Z 3118/0118 16005KT P6SM FEW070
     FM312100 25008KT P6SM VCTS SCT080CB SCT250
     FM010300 30006KT P6SM FEW080 SCT250
     FM011300 VRB04KT P6SM SCT250=



    US Dept of Commerce
    National Oceanic and Atmospheric Administration
    National Weather Service
    1325 East West Highway
    Silver Spring, MD 20910
    Page Author: NWS Internet Services Team
Disclaimer
Information Quality
Credits
Glossary
Privacy Policy
Freedom of Information Act (FOIA)
About Us
Career Opportunities